Погода Капутына неделю

Мазовецкое воеводство, Польша

25 - 31 мая
  • 25мая
    Сегодня
    +14°
    +27°
    Небольшая облачность
    ВремяПогодаТемператураВлажностьДавлениеВетер, м/сВероятность осадков
    02:00Ясно и безоблачно+17°C79 %757 мм2.4 м/с2 %
    05:00Небольшая облачность+15°C85 %757 мм2.0 м/с2 %
    08:00Облачно с прояснениями+20°C66 %757 мм2.6 м/с2 %
    11:00Облачно с прояснениями+24°C45 %757 мм3.1 м/с2 %
    14:00Небольшая облачность+26°C34 %757 мм3.6 м/с20 %
    17:00Облачно с прояснениями+24°C46 %757 мм3.8 м/с47 %
    20:00Практически безоблачно+21°C64 %757 мм2.5 м/с12 %
    23:00Ясно и безоблачно+18°C80 %757 мм2.7 м/с1 %
  • 26мая
    Воскресенье
    +15°
    +28°
    Ясно и безоблачно
    ВремяПогодаТемператураВлажностьДавлениеВетер, м/сВероятность осадков
    02:00Ясно и безоблачно+16°C92 %757 мм2.0 м/с2 %
    05:00Ясно и безоблачно+15°C93 %758 мм1.9 м/с1 %
    08:00Ясно и безоблачно+20°C68 %758 мм2.6 м/с1 %
    11:00Небольшая облачность+26°C40 %758 мм3.9 м/с2 %
    14:00Ясно и безоблачно+27°C34 %758 мм4.6 м/с2 %
    17:00Небольшая облачность+26°C38 %757 мм4.3 м/с12 %
    20:00Практически безоблачно+22°C53 %757 мм1.9 м/с12 %
    23:00Облачно с прояснениями+19°C70 %758 мм3.0 м/с3 %
  • 27мая
    Понедельник
    +14°
    +28°
    Ясно и безоблачно
    ВремяПогодаТемператураВлажностьДавлениеВетер, м/сВероятность осадков
    02:00Ясно и безоблачно+17°C51 %758 мм2.6 м/с2 %
    05:00Ясно и безоблачно+15°C52 %758 мм2.4 м/с2 %
    08:00Ясно и безоблачно+20°C48 %758 мм3.0 м/с2 %
    11:00Ясно и безоблачно+26°C28 %758 мм4.6 м/с2 %
    14:00Ясно и безоблачно+28°C19 %757 мм4.8 м/с2 %
    17:00Ясно и безоблачно+27°C20 %756 мм4.7 м/с2 %
    20:00Ясно и безоблачно+23°C35 %756 мм3.0 м/с2 %
    23:00Ясно и безоблачно+19°C34 %756 мм3.1 м/с2 %
  • 28мая
    Вторник
    +16°
    +29°
    Небольшая облачность
    ВремяПогодаТемператураВлажностьДавлениеВетер, м/сВероятность осадков
    02:00Ясно и безоблачно+16°C48 %756 мм2.2 м/с2 %
    05:00Ясно и безоблачно+14°C55 %756 мм2.1 м/с2 %
    08:00Ясно и безоблачно+20°C48 %756 мм3.3 м/с2 %
    11:00Ясно и безоблачно+27°C26 %756 мм5.1 м/с2 %
    14:00Небольшая облачность+28°C21 %755 мм5.0 м/с2 %
    17:00Облачно с прояснениями+26°C20 %753 мм4.3 м/с2 %
    20:00Небольшая облачность+23°C29 %753 мм2.7 м/с2 %
    23:00Небольшая облачность+20°C45 %754 мм2.6 м/с2 %
  • 29мая
    Среда
    +15°
    +27°
    Практически безоблачно
    ВремяПогодаТемператураВлажностьДавлениеВетер, м/сВероятность осадков
    02:00Облачно с прояснениями+18°C44 %753 мм1.7 м/с2 %
    05:00Облачно с прояснениями+17°C53 %753 мм1.2 м/с2 %
    08:00Небольшая облачность+20°C47 %753 мм2.0 м/с2 %
    11:00Пасмурно, сплошная облачность+25°C32 %753 мм3.0 м/с11 %
    14:00Практически безоблачно+26°C28 %752 мм3.3 м/с21 %
    17:00Ясно и безоблачно+24°C26 %750 мм3.6 м/с31 %
    20:00Практически безоблачно+22°C37 %750 мм2.4 м/с18 %
    23:00Практически безоблачно+20°C53 %751 мм2.6 м/с7 %
Мы используем cookies
Соглашаюсь